RIV weather

March ARB Airport
Riverside, California, United States

Public forecast

Using degrees Fahrenheit for public forecast. Weather courtesy of forecast.io.

METAR (pilot weather report)

Retrieved 2019/09/16 22:58 UTC (38 minutes ago):

KRIV 162258Z AUTO 31011KT 10SM FEW110 31/12 A2988 RMK AO2 SLP105 T03060120

TAF (pilot weather forecast)

Retrieved 2019/09/17 20:00 UTC (0 seconds ago):

TAF COR KRIV 162353Z 1620/1802 31009KT 9999 SCT120 BKN180 BKN250 QNH2991INS TEMPO 1621/1701 31012G20KT BECMG 1703/1704 31006KT 9999 BKN100 QNH2990INS BECMG 1706/1707 15004KT 9999 SCT100 QNH2993INS BECMG 1718/1719 31009KT 9999 SKC QNH2991INS TEMPO 1721/1801 31012G18KT TX33/1622Z TN13/1713Z